createdAt,value
2022-12-12T00:28:47.961Z,-2.71
2022-12-12T00:33:55.174Z,-2.76
2022-12-12T00:39:01.862Z,-2.76
2022-12-12T00:44:09.825Z,-2.79
2022-12-12T00:49:16.269Z,-2.81
2022-12-12T00:54:22.554Z,-2.79
2022-12-12T00:59:30.335Z,-2.82
2022-12-12T01:04:36.706Z,-2.79
2022-12-12T01:09:42.975Z,-2.78
2022-12-12T01:14:50.794Z,-2.77
2022-12-12T01:19:57.728Z,-2.81
2022-12-12T01:25:04.328Z,-2.77
2022-12-12T01:30:18.913Z,-2.77
2022-12-12T01:35:25.891Z,-2.76
2022-12-12T01:40:33.653Z,-2.73
2022-12-12T01:46:45.954Z,-2.72
2022-12-12T01:51:56.466Z,-2.71
2022-12-12T01:57:08.745Z,-2.71
2022-12-12T02:02:16.553Z,-2.67
2022-12-12T02:07:22.812Z,-2.67
2022-12-12T02:12:29.009Z,-2.69
2022-12-12T02:17:56.406Z,-2.62
2022-12-12T02:23:43.525Z,-2.62
2022-12-12T02:29:20.843Z,-2.62
2022-12-12T02:34:36.376Z,-2.60
2022-12-12T02:39:55.732Z,-2.59
2022-12-12T02:45:11.413Z,-2.58
2022-12-12T02:50:24.331Z,-2.60
2022-12-12T02:55:33.781Z,-2.56
2022-12-12T03:00:54.498Z,-2.54
2022-12-12T03:06:41.303Z,-2.49
2022-12-12T03:12:03.281Z,-2.46
2022-12-12T03:17:17.765Z,-2.45
2022-12-12T03:22:29.149Z,-2.39
2022-12-12T03:27:42.787Z,-2.38
2022-12-12T03:32:57.174Z,-2.35
2022-12-12T03:38:14.464Z,-2.34
2022-12-12T03:43:24.911Z,-2.31
2022-12-12T03:48:33.335Z,-2.28
2022-12-12T03:53:47.327Z,-2.24
2022-12-12T03:59:01.516Z,-2.23
2022-12-12T04:04:16.349Z,-2.19
2022-12-12T04:09:42.814Z,-2.15
2022-12-12T04:15:30.425Z,-2.14
2022-12-12T04:21:03.616Z,-2.11
2022-12-12T04:26:36.257Z,-2.09
2022-12-12T04:31:51.158Z,-2.06
2022-12-12T04:36:57.719Z,-2.05
2022-12-12T04:42:09.399Z,-2.01
2022-12-12T04:47:18.976Z,-2.00
2022-12-12T04:52:28.365Z,-2.00
2022-12-12T04:57:42.833Z,-1.97
2022-12-12T05:02:59.660Z,-1.97
2022-12-12T05:08:12.754Z,-1.95
2022-12-12T05:13:23.862Z,-1.93
2022-12-12T05:18:30.928Z,-1.91
2022-12-12T05:23:37.239Z,-1.88
2022-12-12T05:28:44.797Z,-1.87
2022-12-12T05:33:51.186Z,-1.84
2022-12-12T05:38:58.457Z,-1.85
2022-12-12T05:44:06.377Z,-1.83
2022-12-12T05:49:13.129Z,-1.81
2022-12-12T05:54:19.612Z,-1.79
2022-12-12T05:59:27.544Z,-1.78
2022-12-12T06:04:35.385Z,-1.77
2022-12-12T06:09:41.892Z,-1.77
2022-12-12T06:14:50.529Z,-1.73
2022-12-12T06:19:56.805Z,-1.74
2022-12-12T06:25:03.185Z,-1.72
2022-12-12T06:30:12.942Z,-1.71
2022-12-12T06:35:23.435Z,-1.67
2022-12-12T06:40:30.049Z,-1.66
2022-12-12T06:45:38.082Z,-1.64
2022-12-12T06:50:45.891Z,-1.61
2022-12-12T06:55:52.228Z,-1.60
2022-12-12T07:01:00.388Z,-1.57
2022-12-12T07:06:07.636Z,-1.54
2022-12-12T07:11:16.890Z,-1.51
2022-12-12T07:16:25.507Z,-1.48
2022-12-12T07:21:32.118Z,-1.44
2022-12-12T07:26:38.411Z,-1.42
2022-12-12T07:31:46.139Z,-1.41
2022-12-12T07:36:53.762Z,-1.36
2022-12-12T07:42:02.967Z,-1.33
2022-12-12T07:47:11.757Z,-1.28
2022-12-12T07:52:17.934Z,-1.27
2022-12-12T07:57:24.093Z,-1.28
2022-12-12T08:02:31.961Z,-1.25
2022-12-12T08:07:38.328Z,-1.23
2022-12-12T08:12:44.481Z,-1.20
2022-12-12T08:17:52.303Z,-1.16
2022-12-12T08:22:58.523Z,-1.13
2022-12-12T08:28:05.028Z,-1.10
2022-12-12T08:33:12.808Z,-1.07
2022-12-12T08:38:19.156Z,-1.03
2022-12-12T08:43:25.391Z,-1.02
2022-12-12T08:48:35.435Z,-0.97
2022-12-12T08:53:41.894Z,-0.95
2022-12-12T08:58:48.978Z,-0.93
2022-12-12T09:03:58.463Z,-0.88
2022-12-12T09:09:05.102Z,-0.85
2022-12-12T09:14:11.903Z,-0.83
2022-12-12T09:19:20.025Z,-0.82
2022-12-12T09:24:26.523Z,-0.79
2022-12-12T09:29:32.856Z,-0.77
2022-12-12T09:34:41.508Z,-0.76
2022-12-12T09:39:47.777Z,-0.74
2022-12-12T09:44:59.223Z,-0.70
2022-12-12T09:50:19.100Z,-0.55
2022-12-12T09:55:40.419Z,-0.46
2022-12-12T10:00:53.988Z,-0.40
2022-12-12T10:11:55.284Z,-0.34
2022-12-12T10:17:03.927Z,-0.39
2022-12-12T10:22:36.482Z,-0.37
2022-12-12T10:27:42.970Z,-0.37
2022-12-12T10:33:17.808Z,-0.40
2022-12-12T10:38:50.731Z,-0.42
2022-12-12T10:44:05.752Z,-0.41
2022-12-12T10:49:18.747Z,-0.40
2022-12-12T10:54:29.415Z,-0.40
2022-12-12T10:59:43.586Z,-0.39
2022-12-12T11:04:49.907Z,-0.38
2022-12-12T11:10:01.895Z,-0.38
2022-12-12T11:15:18.651Z,-0.38
2022-12-12T11:20:25.918Z,-0.37
2022-12-12T11:25:36.457Z,-0.35
2022-12-12T11:30:45.722Z,-0.35
2022-12-12T11:35:57.398Z,-0.33
2022-12-12T11:41:08.246Z,-0.31
2022-12-12T11:46:21.206Z,-0.28
2022-12-12T11:51:38.124Z,-0.28
2022-12-12T11:56:52.713Z,-0.27
2022-12-12T12:02:17.738Z,-0.24
2022-12-12T12:07:52.681Z,-0.27
2022-12-12T12:13:18.251Z,-0.25
2022-12-12T12:18:45.739Z,-0.23
2022-12-12T12:24:13.294Z,-0.23
2022-12-12T12:29:41.343Z,-0.20
2022-12-12T12:35:02.439Z,-0.20
2022-12-12T12:40:24.779Z,-0.20
2022-12-12T12:45:45.930Z,-0.21
2022-12-12T12:51:06.074Z,-0.20
2022-12-12T12:56:27.026Z,-0.18
2022-12-12T13:01:40.945Z,-0.18
2022-12-12T13:06:53.866Z,-0.18
2022-12-12T13:12:07.082Z,-0.18
2022-12-12T13:17:22.393Z,-0.18
2022-12-12T13:22:41.637Z,-0.18
2022-12-12T13:27:54.663Z,-0.18
2022-12-12T13:33:33.669Z,-0.19
2022-12-12T13:38:40.338Z,-0.18
2022-12-12T13:43:50.019Z,-0.20
2022-12-12T13:49:01.724Z,-0.20
2022-12-12T13:54:49.342Z,-0.18
2022-12-12T14:00:26.303Z,-0.17
2022-12-12T14:05:40.109Z,-0.16
2022-12-12T14:11:03.278Z,-0.16
2022-12-12T14:16:23.201Z,-0.17
2022-12-12T14:21:50.369Z,-0.16
2022-12-12T14:26:56.931Z,-0.15
2022-12-12T14:32:35.225Z,-0.16
2022-12-12T14:37:52.486Z,-0.17
2022-12-12T14:43:18.999Z,-0.17
2022-12-12T14:48:31.978Z,-0.17
2022-12-12T14:53:48.891Z,-0.18
2022-12-12T14:59:03.187Z,-0.19
2022-12-12T15:04:13.093Z,-0.22
2022-12-12T15:09:27.642Z,-0.20
2022-12-12T15:14:34.084Z,-0.19
2022-12-12T15:19:45.146Z,-0.19
2022-12-12T15:24:54.257Z,-0.22
2022-12-12T15:30:01.527Z,-0.21
2022-12-12T15:35:19.243Z,-0.19
2022-12-12T15:40:32.137Z,-0.18
2022-12-12T15:45:41.885Z,-0.18
2022-12-12T15:50:58.411Z,-0.17
2022-12-12T15:56:09.713Z,-0.18
2022-12-12T16:01:22.564Z,-0.17
2022-12-12T16:06:35.736Z,-0.18
2022-12-12T16:11:47.305Z,-0.17
2022-12-12T16:16:59.353Z,-0.17
2022-12-12T16:22:09.536Z,-0.18
2022-12-12T16:27:17.742Z,-0.17
2022-12-12T16:32:25.735Z,-0.17
2022-12-12T16:37:32.178Z,-0.18
2022-12-12T16:42:40.737Z,-0.18
2022-12-12T16:47:47.163Z,-0.19
2022-12-12T16:52:53.534Z,-0.20
2022-12-12T16:58:01.810Z,-0.20
2022-12-12T17:03:09.430Z,-0.20
2022-12-12T17:08:17.395Z,-0.21
2022-12-12T17:13:27.274Z,-0.20
2022-12-12T17:18:33.785Z,-0.21
2022-12-12T17:23:42.191Z,-0.21
2022-12-12T17:28:51.034Z,-0.23
2022-12-12T17:33:57.876Z,-0.25
2022-12-12T17:39:06.367Z,-0.26
2022-12-12T17:44:14.349Z,-0.27
2022-12-12T17:49:20.672Z,-0.26
2022-12-12T17:54:28.245Z,-0.26
2022-12-12T17:59:45.797Z,-0.25
2022-12-12T18:04:54.037Z,-0.23
2022-12-12T18:10:01.756Z,-0.23
2022-12-12T18:15:12.862Z,-0.24
2022-12-12T18:20:22.211Z,-0.25
2022-12-12T18:25:31.841Z,-0.26
2022-12-12T18:30:47.369Z,-0.29
2022-12-12T18:36:03.933Z,-0.32
2022-12-12T18:41:11.934Z,-0.37
2022-12-12T18:46:25.086Z,-0.38
2022-12-12T18:51:33.994Z,-0.40
2022-12-12T18:56:41.211Z,-0.47
2022-12-12T19:01:52.242Z,-0.52
2022-12-12T19:07:00.819Z,-0.54
2022-12-12T19:12:11.637Z,-0.54
2022-12-12T19:17:26.078Z,-0.59
2022-12-12T19:22:51.266Z,-0.62
2022-12-12T19:28:01.941Z,-0.61
2022-12-12T19:33:12.071Z,-0.64
2022-12-12T19:38:24.391Z,-0.65
2022-12-12T19:43:33.715Z,-0.67
2022-12-12T19:48:48.278Z,-0.73
2022-12-12T19:54:00.597Z,-0.76
2022-12-12T19:59:09.617Z,-0.76
2022-12-12T20:04:23.757Z,-0.79
2022-12-12T20:09:33.310Z,-0.78
2022-12-12T20:14:42.644Z,-0.80
2022-12-12T20:19:54.014Z,-0.83
2022-12-12T20:25:02.042Z,-0.84
2022-12-12T20:30:14.755Z,-0.85
2022-12-12T20:35:24.931Z,-0.82
2022-12-12T20:40:34.579Z,-0.85
2022-12-12T20:45:42.060Z,-0.85
2022-12-12T20:50:52.356Z,-0.85
2022-12-12T20:56:11.036Z,-0.86
2022-12-12T21:01:20.238Z,-0.84
2022-12-12T21:06:31.575Z,-0.84
2022-12-12T21:11:40.586Z,-0.88
2022-12-12T21:16:47.801Z,-0.87
2022-12-12T21:21:56.907Z,-0.87
2022-12-12T21:27:03.968Z,-0.83
2022-12-12T21:32:11.057Z,-0.81
2022-12-12T21:37:19.208Z,-0.82
2022-12-12T21:42:25.641Z,-0.81
2022-12-12T21:47:32.097Z,-0.79
2022-12-12T21:52:39.977Z,-0.78
2022-12-12T21:57:46.621Z,-0.77
2022-12-12T22:02:52.938Z,-0.78
2022-12-12T22:08:01.059Z,-0.79
2022-12-12T22:13:07.798Z,-0.82
2022-12-12T22:18:14.916Z,-0.83
2022-12-12T22:23:23.551Z,-0.86
2022-12-12T22:28:29.763Z,-0.88
2022-12-12T22:33:36.008Z,-0.90
2022-12-12T22:38:44.026Z,-0.93
2022-12-12T22:43:53.966Z,-1.02
2022-12-12T22:49:03.338Z,-0.95
2022-12-12T22:54:11.562Z,-0.98
2022-12-12T22:59:18.245Z,-1.02
2022-12-12T23:04:24.626Z,-1.03
2022-12-12T23:09:33.880Z,-0.98
2022-12-12T23:14:40.260Z,-1.00
2022-12-12T23:19:47.857Z,-0.99
2022-12-12T23:24:55.899Z,-1.02
2022-12-12T23:30:02.306Z,-1.03
2022-12-12T23:35:09.945Z,-1.00
2022-12-12T23:40:17.739Z,-0.98
2022-12-12T23:45:23.819Z,-0.99
2022-12-12T23:50:29.952Z,-1.00
2022-12-12T23:55:37.631Z,-0.98
